Time;durP1;ratioP1;P1;durP2;ratioP2;P2;SDS_P1;SDS_P2;PMS_P1;PMS_P2;Temp;Humidity;BMP_temperature;BMP_pressure;BME280_temperature;BME280_humidity;BME280_pressure;Samples;Min_cycle;Max_cycle;Signal;HPM_P1;HPM_P2
2023/05/05 00:00:07;;;;;;;1.40;1.20;;;17.40;99.90;;;;;;5118312;28;20423;-67
2023/05/05 00:02:36;;;;;;;4.10;1.30;;;17.30;99.90;;;;;;5117745;28;20489;-67
2023/05/05 00:05:03;;;;;;;1.60;1.20;;;17.30;99.90;;;;;;5117944;28;20451;-67
2023/05/05 00:07:30;;;;;;;1.60;1.10;;;17.30;99.90;;;;;;5116466;28;20503;-67
2023/05/05 00:09:57;;;;;;;2.60;1.30;;;17.30;99.90;;;;;;5116461;28;20416;-68
2023/05/05 00:12:24;;;;;;;2.22;1.30;;;17.30;99.90;;;;;;5116573;28;20847;-67
2023/05/05 00:14:51;;;;;;;2.75;1.38;;;17.30;99.90;;;;;;5116191;28;20408;-67
2023/05/05 00:17:18;;;;;;;1.50;1.10;;;17.30;99.90;;;;;;5114873;28;20429;-65
2023/05/05 00:19:46;;;;;;;3.33;1.10;;;17.20;99.90;;;;;;5116252;28;20480;-67
2023/05/05 00:22:13;;;;;;;2.55;1.30;;;17.20;99.90;;;;;;5116671;28;20428;-67
2023/05/05 00:24:40;;;;;;;1.48;1.20;;;17.20;99.90;;;;;;5116564;28;20442;-69
2023/05/05 00:27:07;;;;;;;1.90;1.20;;;17.20;99.90;;;;;;5115502;28;20776;-67
2023/05/05 00:29:34;;;;;;;1.80;1.40;;;17.10;99.90;;;;;;5116336;28;20978;-67
2023/05/05 00:32:01;;;;;;;2.20;1.30;;;17.10;99.90;;;;;;5116196;28;20473;-66
2023/05/05 00:34:28;;;;;;;1.58;1.20;;;17.10;99.90;;;;;;5116193;28;20420;-67
2023/05/05 00:36:56;;;;;;;1.42;1.20;;;17.00;99.90;;;;;;5115866;28;20511;-67
2023/05/05 00:39:24;;;;;;;1.48;1.20;;;16.90;99.90;;;;;;5117055;28;20884;-67
2023/05/05 00:41:51;;;;;;;2.17;1.25;;;16.90;99.90;;;;;;5117711;28;20439;-66
2023/05/05 00:44:18;;;;;;;1.92;1.40;;;16.80;99.90;;;;;;5116398;28;20416;-67
2023/05/05 00:46:45;;;;;;;1.50;1.20;;;16.70;99.90;;;;;;5117244;28;20424;-66
2023/05/05 00:49:12;;;;;;;2.00;1.20;;;16.70;99.90;;;;;;5117218;28;20424;-67
2023/05/05 00:51:39;;;;;;;1.80;1.30;;;16.70;99.90;;;;;;5117275;28;20432;-66
2023/05/05 00:54:07;;;;;;;2.10;1.30;;;16.70;99.90;;;;;;5117162;28;20785;-66
2023/05/05 00:56:37;;;;;;;2.20;1.30;;;16.70;99.90;;;;;;5117025;28;20785;-66
2023/05/05 00:59:04;;;;;;;2.00;1.30;;;16.70;99.90;;;;;;5117175;28;20443;-66
2023/05/05 01:01:31;;;;;;;1.60;1.50;;;16.80;99.90;;;;;;5117240;28;20835;-66
2023/05/05 01:03:58;;;;;;;3.30;1.30;;;16.70;99.90;;;;;;5117036;28;20423;-66
2023/05/05 01:06:41;;;;;;;2.60;1.20;;;16.60;99.90;;;;;;5116912;28;20473;-66
2023/05/05 01:09:22;;;;;;;1.98;1.20;;;16.60;99.90;;;;;;5117000;28;20491;-65
2023/05/05 01:12:01;;;;;;;1.80;1.20;;;16.70;99.90;;;;;;5116577;28;20458;-66
2023/05/05 01:14:38;;;;;;;2.30;1.35;;;16.70;99.90;;;;;;5116614;28;20408;-66
2023/05/05 01:17:15;;;;;;;2.10;1.20;;;16.70;99.90;;;;;;5117519;28;20433;-66
2023/05/05 01:20:02;;;;;;;3.70;1.40;;;16.70;99.90;;;;;;5113788;28;20424;-66
2023/05/05 01:22:37;;;;;;;2.70;1.40;;;16.70;99.90;;;;;;5116760;28;20489;-67
2023/05/05 01:25:17;;;;;;;2.20;1.30;;;16.60;99.90;;;;;;5116941;28;20450;-67
2023/05/05 01:27:55;;;;;;;2.03;1.33;;;16.60;99.90;;;;;;5116017;28;20436;-66
2023/05/05 01:30:46;;;;;;;2.00;1.20;;;16.50;99.90;;;;;;5116041;28;20780;-67
2023/05/05 01:33:19;;;;;;;2.00;1.20;;;16.50;99.90;;;;;;5115928;28;20588;-66
2023/05/05 01:35:52;;;;;;;2.00;1.40;;;16.50;99.90;;;;;;5116374;28;20493;-66
2023/05/05 01:38:22;;;;;;;2.38;1.40;;;16.50;99.90;;;;;;5115317;28;20428;-67
2023/05/05 01:40:59;;;;;;;1.90;1.20;;;16.40;99.90;;;;;;5115832;28;20411;-66
2023/05/05 01:43:29;;;;;;;2.80;1.33;;;16.40;99.90;;;;;;5116489;28;20860;-66
2023/05/05 01:45:58;;;;;;;1.50;1.20;;;16.30;99.90;;;;;;5116559;28;20420;-66
2023/05/05 01:48:28;;;;;;;1.90;1.30;;;16.30;99.90;;;;;;5116084;28;20416;-66
2023/05/05 01:50:55;;;;;;;2.58;1.40;;;16.20;99.90;;;;;;5115744;28;20530;-65
2023/05/05 01:53:24;;;;;;;1.60;1.30;;;16.20;99.90;;;;;;5116194;28;20473;-66
2023/05/05 01:55:52;;;;;;;1.90;1.20;;;16.20;99.90;;;;;;5116024;28;20473;-66
2023/05/05 01:58:22;;;;;;;1.60;1.20;;;16.30;99.90;;;;;;5114895;28;20488;-66
2023/05/05 02:00:49;;;;;;;1.40;1.20;;;16.20;99.90;;;;;;5115539;28;20424;-65
2023/05/05 02:03:17;;;;;;;1.60;1.40;;;16.30;99.90;;;;;;5116136;28;20870;-66
2023/05/05 02:05:47;;;;;;;2.10;1.30;;;16.30;99.90;;;;;;5116227;28;20416;-65
2023/05/05 02:08:15;;;;;;;1.70;1.15;;;16.30;99.90;;;;;;5116033;28;20428;-64
2023/05/05 02:10:44;;;;;;;1.48;1.10;;;16.30;99.90;;;;;;5115752;28;20473;-65
2023/05/05 02:13:14;;;;;;;2.40;1.20;;;16.30;99.90;;;;;;5115837;28;20428;-65
2023/05/05 02:15:43;;;;;;;3.03;1.20;;;16.30;99.90;;;;;;5115958;28;20427;-65
2023/05/05 02:18:10;;;;;;;2.30;1.38;;;16.30;99.90;;;;;;5115589;28;20908;-65
2023/05/05 02:20:39;;;;;;;2.00;1.50;;;16.30;99.90;;;;;;5114732;28;20408;-66
2023/05/05 02:23:08;;;;;;;1.50;1.20;;;16.20;99.90;;;;;;5115663;28;20432;-64
2023/05/05 02:25:40;;;;;;;1.70;1.40;;;16.20;99.90;;;;;;5114934;28;20480;-66
2023/05/05 02:28:15;;;;;;;2.10;1.40;;;16.10;99.90;;;;;;5113359;28;20467;-64
2023/05/05 02:30:43;;;;;;;1.73;1.25;;;16.10;99.90;;;;;;5114580;28;20473;-65
2023/05/05 02:33:14;;;;;;;1.83;1.60;;;16.10;99.90;;;;;;5115070;28;20420;-65
2023/05/05 02:35:44;;;;;;;1.50;1.20;;;16.10;99.90;;;;;;5114844;28;20450;-65
2023/05/05 02:38:17;;;;;;;1.80;1.30;;;16.10;99.90;;;;;;5114913;28;20836;-65
2023/05/05 02:40:47;;;;;;;1.80;1.33;;;16.00;99.90;;;;;;5115508;28;20420;-65
2023/05/05 02:43:18;;;;;;;1.67;1.40;;;16.00;99.90;;;;;;5114507;28;20436;-65
2023/05/05 02:45:45;;;;;;;1.80;1.40;;;16.00;99.90;;;;;;5115123;28;20423;-66
2023/05/05 02:48:13;;;;;;;2.00;1.38;;;16.00;99.90;;;;;;5115384;28;20424;-65
2023/05/05 02:50:40;;;;;;;2.50;1.60;;;15.90;99.90;;;;;;5115203;28;20416;-65
2023/05/05 02:53:07;;;;;;;2.35;1.40;;;16.00;99.90;;;;;;5115274;28;20420;-65
2023/05/05 02:55:43;;;;;;;1.92;1.33;;;16.00;99.90;;;;;;5115600;28;20407;-65
2023/05/05 02:58:19;;;;;;;2.60;1.40;;;15.90;99.90;;;;;;5114368;28;20773;-65
2023/05/05 03:00:53;;;;;;;1.50;1.10;;;15.90;99.90;;;;;;5114357;28;20416;-65
2023/05/05 03:03:30;;;;;;;2.10;1.23;;;16.00;99.90;;;;;;5114827;28;20527;-65
2023/05/05 03:06:14;;;;;;;1.80;1.10;;;16.00;99.90;;;;;;5115206;28;20420;-64
2023/05/05 03:08:44;;;;;;;3.22;1.20;;;16.10;99.90;;;;;;5114257;28;20424;-64
2023/05/05 03:11:22;;;;;;;1.60;1.10;;;16.20;99.90;;;;;;5114214;28;20452;-64
2023/05/05 03:13:51;;;;;;;2.10;1.23;;;16.20;99.90;;;;;;5114867;28;20474;-66
2023/05/05 03:16:20;;;;;;;1.80;1.10;;;16.30;99.90;;;;;;5114556;28;20508;-64
2023/05/05 03:18:49;;;;;;;2.50;1.20;;;16.30;99.90;;;;;;5114590;28;20423;-64
2023/05/05 03:21:17;;;;;;;1.90;1.00;;;16.30;99.90;;;;;;5114149;28;20469;-64
2023/05/05 03:23:44;;;;;;;1.23;1.13;;;16.40;99.90;;;;;;5113606;28;20420;-64
2023/05/05 03:26:11;;;;;;;1.40;1.10;;;16.40;99.90;;;;;;5114516;28;20419;-65
2023/05/05 03:28:40;;;;;;;2.10;1.10;;;16.40;99.90;;;;;;5113877;28;20423;-65
2023/05/05 03:31:07;;;;;;;1.20;1.00;;;16.40;99.90;;;;;;5114130;28;20412;-64
2023/05/05 03:33:34;;;;;;;1.33;1.10;;;16.50;99.90;;;;;;5114457;28;20419;-66
2023/05/05 03:36:01;;;;;;;2.00;1.10;;;16.50;99.90;;;;;;5114313;28;20412;-66
2023/05/05 03:38:33;;;;;;;1.45;1.02;;;16.50;99.90;;;;;;5114896;28;20441;-65
2023/05/05 03:41:02;;;;;;;1.27;1.00;;;16.50;99.90;;;;;;5114051;28;20415;-64
2023/05/05 03:43:29;;;;;;;1.40;1.00;;;16.50;99.90;;;;;;5113697;28;20897;-65
2023/05/05 03:45:57;;;;;;;1.25;1.00;;;16.60;99.90;;;;;;5113849;28;20473;-65
2023/05/05 03:48:24;;;;;;;1.80;0.90;;;16.60;99.90;;;;;;5113534;28;20486;-66
2023/05/05 03:50:52;;;;;;;1.17;0.90;;;16.80;99.90;;;;;;5114047;28;20412;-66
2023/05/05 03:53:19;;;;;;;1.60;0.95;;;16.80;99.90;;;;;;5112932;28;20569;-65
2023/05/05 03:55:46;;;;;;;2.30;0.90;;;16.90;99.90;;;;;;5112653;28;20424;-65
2023/05/05 03:58:13;;;;;;;1.10;0.93;;;17.00;99.90;;;;;;5112705;28;20501;-66
2023/05/05 04:00:40;;;;;;;1.20;0.90;;;17.00;99.90;;;;;;5112906;28;20424;-65
2023/05/05 04:03:09;;;;;;;1.30;0.98;;;17.00;99.90;;;;;;5113637;28;20432;-67
2023/05/05 04:05:36;;;;;;;1.38;0.90;;;17.00;99.90;;;;;;5112356;28;20420;-66
2023/05/05 04:08:03;;;;;;;1.20;0.90;;;17.00;99.90;;;;;;5114481;28;20904;-65
2023/05/05 04:10:31;;;;;;;1.70;0.90;;;17.00;99.90;;;;;;5114141;28;20412;-65
2023/05/05 04:12:57;;;;;;;1.50;0.90;;;17.00;99.90;;;;;;5113796;28;20777;-65
2023/05/05 04:15:24;;;;;;;1.00;0.90;;;17.10;99.90;;;;;;5113942;28;20420;-65
2023/05/05 04:17:52;;;;;;;1.73;0.90;;;17.10;99.90;;;;;;5114431;28;20454;-65
2023/05/05 04:20:20;;;;;;;1.30;1.00;;;17.10;99.90;;;;;;5113866;28;20428;-65
2023/05/05 04:22:47;;;;;;;1.80;0.90;;;17.20;99.90;;;;;;5112944;28;20428;-65
2023/05/05 04:25:14;;;;;;;1.00;0.90;;;17.30;99.90;;;;;;5112654;28;20493;-64
2023/05/05 04:27:41;;;;;;;2.00;0.90;;;17.30;99.90;;;;;;5112355;28;20915;-64
2023/05/05 04:30:09;;;;;;;1.50;0.90;;;17.40;99.90;;;;;;5111123;28;20928;-65
2023/05/05 04:32:36;;;;;;;1.50;1.00;;;17.40;99.90;;;;;;5110841;28;20428;-64
2023/05/05 04:35:03;;;;;;;1.40;0.90;;;17.40;99.90;;;;;;5113373;28;20461;-64
2023/05/05 04:37:32;;;;;;;2.10;0.90;;;17.50;99.90;;;;;;5113570;28;20994;-65
2023/05/05 04:39:59;;;;;;;1.50;1.02;;;17.50;99.90;;;;;;5113606;28;20421;-64
2023/05/05 04:42:26;;;;;;;1.70;1.00;;;17.50;99.90;;;;;;5115931;28;20928;-64
2023/05/05 04:44:53;;;;;;;1.13;1.00;;;17.50;99.90;;;;;;5114723;28;20859;-64
2023/05/05 04:47:20;;;;;;;1.60;1.00;;;17.40;99.90;;;;;;5115759;28;20862;-65
2023/05/05 04:49:48;;;;;;;2.45;1.13;;;17.40;99.90;;;;;;5116190;28;20851;-64
2023/05/05 04:52:15;;;;;;;1.45;0.90;;;17.50;99.90;;;;;;5116161;28;20755;-64
2023/05/05 04:54:43;;;;;;;1.50;0.90;;;17.50;99.90;;;;;;5117094;28;20423;-64
2023/05/05 04:57:10;;;;;;;1.60;1.10;;;17.50;99.90;;;;;;5115089;28;20427;-64
2023/05/05 04:59:37;;;;;;;1.45;1.00;;;17.50;99.90;;;;;;5114339;28;20789;-64
2023/05/05 05:02:05;;;;;;;1.20;0.90;;;17.60;99.90;;;;;;5111704;28;20436;-64
2023/05/05 05:04:32;;;;;;;1.73;0.90;;;17.60;99.90;;;;;;5114526;28;20423;-65
2023/05/05 05:07:00;;;;;;;1.30;1.00;;;17.60;99.90;;;;;;5114756;28;20484;-64
2023/05/05 05:09:27;;;;;;;2.10;0.90;;;17.70;99.90;;;;;;5113228;28;20719;-64
2023/05/05 05:11:59;;;;;;;1.10;0.90;;;17.80;99.90;;;;;;5115613;28;20428;-64
2023/05/05 05:14:26;;;;;;;1.40;0.90;;;17.80;99.90;;;;;;5113874;28;20454;-65
2023/05/05 05:16:54;;;;;;;1.10;0.80;;;17.80;99.90;;;;;;5112038;28;20485;-64
2023/05/05 05:19:21;;;;;;;2.20;0.77;;;17.90;99.90;;;;;;5111323;28;20436;-64
2023/05/05 05:21:48;;;;;;;1.80;0.70;;;17.90;99.90;;;;;;5112405;28;20431;-64
2023/05/05 05:24:15;;;;;;;1.60;0.70;;;18.00;99.90;;;;;;5114164;28;20924;-66
2023/05/05 05:26:42;;;;;;;1.70;0.70;;;17.90;99.90;;;;;;5114471;28;20773;-64
2023/05/05 05:29:10;;;;;;;1.05;0.70;;;18.00;99.90;;;;;;5113235;28;20443;-64
2023/05/05 05:31:38;;;;;;;1.95;0.70;;;18.00;99.90;;;;;;5115507;28;20423;-63
2023/05/05 05:34:05;;;;;;;1.00;0.70;;;18.00;99.90;;;;;;5111231;28;20416;-64
2023/05/05 05:36:32;;;;;;;1.40;0.70;;;18.10;99.90;;;;;;5114105;28;20428;-65
2023/05/05 05:38:59;;;;;;;1.50;0.70;;;18.10;99.90;;;;;;5114431;28;20416;-65
2023/05/05 05:41:27;;;;;;;1.30;0.70;;;18.10;99.90;;;;;;5113111;28;20424;-65
2023/05/05 05:43:54;;;;;;;1.30;0.80;;;18.10;99.90;;;;;;5112507;28;20844;-65
2023/05/05 05:46:22;;;;;;;1.70;0.70;;;18.10;99.90;;;;;;5105293;28;20441;-65
2023/05/05 05:48:49;;;;;;;1.00;0.73;;;18.10;99.90;;;;;;5093216;28;20871;-64
2023/05/05 05:51:16;;;;;;;0.90;0.70;;;18.10;99.90;;;;;;5092870;28;20914;-66
2023/05/05 05:53:43;;;;;;;0.90;0.60;;;18.20;99.90;;;;;;5103872;28;20428;-65
2023/05/05 05:56:10;;;;;;;1.00;0.60;;;18.30;99.90;;;;;;5109294;28;20431;-64
2023/05/05 05:58:37;;;;;;;1.42;0.70;;;18.40;99.90;;;;;;5112400;28;20489;-65
2023/05/05 06:01:05;;;;;;;1.15;0.70;;;18.50;99.90;;;;;;5111848;28;20436;-65
2023/05/05 06:03:33;;;;;;;0.90;0.70;;;18.60;99.90;;;;;;5110142;28;20556;-65
2023/05/05 06:06:00;;;;;;;0.90;0.70;;;18.70;99.90;;;;;;5110027;28;20900;-61
2023/05/05 06:08:27;;;;;;;2.00;0.70;;;18.70;99.90;;;;;;5111259;28;20843;-61
2023/05/05 06:10:54;;;;;;;1.40;0.70;;;18.70;99.90;;;;;;5110743;28;20424;-62
2023/05/05 06:13:21;;;;;;;0.80;0.60;;;18.70;99.90;;;;;;5108293;28;20416;-60
2023/05/05 06:15:48;;;;;;;0.90;0.60;;;18.80;99.90;;;;;;5108755;28;20428;-62
2023/05/05 06:18:15;;;;;;;1.33;0.60;;;18.90;99.90;;;;;;5111011;28;20439;-60
2023/05/05 06:20:44;;;;;;;1.88;0.70;;;19.00;99.90;;;;;;5106665;28;21792;-62
2023/05/05 06:23:11;;;;;;;1.30;0.65;;;19.20;99.90;;;;;;5109921;28;21000;-61
2023/05/05 06:25:39;;;;;;;1.60;0.70;;;19.20;99.90;;;;;;5108296;28;20745;-62
2023/05/05 06:28:06;;;;;;;0.82;0.60;;;19.30;99.90;;;;;;5093085;28;20426;-62
2023/05/05 06:30:33;;;;;;;1.40;0.70;;;19.40;99.90;;;;;;5096946;28;20425;-60
2023/05/05 06:33:00;;;;;;;0.75;0.60;;;19.60;99.90;;;;;;5111750;28;20459;-60
2023/05/05 06:35:29;;;;;;;1.08;0.70;;;19.70;99.90;;;;;;5111033;28;20473;-60
2023/05/05 06:37:57;;;;;;;1.50;0.80;;;19.80;99.90;;;;;;5111869;28;20946;-60
2023/05/05 06:40:24;;;;;;;1.60;0.80;;;19.90;99.90;;;;;;5113183;28;20417;-60
2023/05/05 06:42:51;;;;;;;2.20;1.00;;;19.70;99.90;;;;;;5111192;28;20861;-60
2023/05/05 06:45:18;;;;;;;0.80;0.60;;;19.60;99.90;;;;;;5110735;28;20746;-61
2023/05/05 06:47:45;;;;;;;1.90;0.80;;;19.70;99.90;;;;;;5111044;28;20493;-61
2023/05/05 06:50:12;;;;;;;1.50;0.70;;;19.70;99.90;;;;;;5110366;28;20723;-60
2023/05/05 06:52:39;;;;;;;2.10;0.70;;;19.70;99.90;;;;;;5108768;28;20686;-61
2023/05/05 06:55:09;;;;;;;0.80;0.60;;;19.70;99.90;;;;;;5106516;28;20736;-60
2023/05/05 06:57:36;;;;;;;0.70;0.60;;;19.80;99.90;;;;;;5111674;28;20432;-60
2023/05/05 07:00:08;;;;;;;1.40;0.60;;;20.00;99.90;;;;;;5108555;28;20465;-60
2023/05/05 07:02:35;;;;;;;0.70;0.60;;;20.00;99.90;;;;;;5110033;28;20432;-60
2023/05/05 07:05:02;;;;;;;0.80;0.60;;;20.10;99.90;;;;;;5110968;28;20507;-60
2023/05/05 07:07:30;;;;;;;0.90;0.60;;;20.10;99.90;;;;;;5111857;28;20705;-62
2023/05/05 07:09:57;;;;;;;1.30;0.70;;;20.00;99.90;;;;;;5112291;28;20480;-59
2023/05/05 07:12:26;;;;;;;1.10;0.60;;;19.90;99.90;;;;;;5111944;28;20473;-60
2023/05/05 07:14:53;;;;;;;0.80;0.50;;;19.80;99.90;;;;;;5111498;28;20912;-59
2023/05/05 07:17:19;;;;;;;1.05;0.70;;;19.80;99.90;;;;;;5110081;28;20697;-58
2023/05/05 07:19:47;;;;;;;0.80;0.60;;;19.90;99.90;;;;;;5111190;28;20412;-59
2023/05/05 07:22:14;;;;;;;0.80;0.50;;;19.90;99.90;;;;;;5111336;28;20862;-60
2023/05/05 07:24:41;;;;;;;0.90;0.60;;;19.80;99.90;;;;;;5111752;28;20515;-59
2023/05/05 07:27:08;;;;;;;0.70;0.60;;;19.70;99.90;;;;;;5111743;28;20424;-59
2023/05/05 07:29:36;;;;;;;1.60;0.60;;;19.70;99.90;;;;;;5110368;28;20770;-60
2023/05/05 07:32:03;;;;;;;1.40;0.65;;;19.70;99.90;;;;;;5107633;28;20840;-60
2023/05/05 07:34:33;;;;;;;1.70;1.40;;;19.70;99.90;;;;;;5109619;28;20420;-60
2023/05/05 07:37:00;;;;;;;1.30;0.65;;;19.60;99.90;;;;;;5107858;28;20434;-60
2023/05/05 07:39:27;;;;;;;0.90;0.70;;;19.60;99.90;;;;;;5109946;28;20424;-60
2023/05/05 07:41:53;;;;;;;0.88;0.60;;;19.50;99.90;;;;;;5110316;28;20501;-60
2023/05/05 07:44:20;;;;;;;0.90;0.60;;;19.50;99.90;;;;;;5109924;28;20773;-60
2023/05/05 07:46:49;;;;;;;1.38;0.70;;;19.40;99.90;;;;;;5109736;28;20450;-60
2023/05/05 07:49:16;;;;;;;0.90;0.60;;;19.40;99.90;;;;;;5106263;28;20440;-60
2023/05/05 07:51:43;;;;;;;1.13;0.60;;;19.40;99.90;;;;;;5091851;28;20485;-60
2023/05/05 07:54:11;;;;;;;0.98;0.68;;;19.40;99.90;;;;;;5104047;28;20892;-61
2023/05/05 07:56:38;;;;;;;1.80;0.60;;;19.30;99.90;;;;;;5095260;28;20454;-60
2023/05/05 07:59:05;;;;;;;1.33;0.60;;;19.20;99.90;;;;;;5110216;28;20419;-60
2023/05/05 08:01:32;;;;;;;1.30;0.60;;;19.10;99.90;;;;;;5110733;28;20424;-60
2023/05/05 08:04:00;;;;;;;1.00;0.90;;;19.00;99.90;;;;;;5111581;28;20940;-61
2023/05/05 08:06:28;;;;;;;1.25;0.70;;;18.80;99.90;;;;;;5111864;28;20424;-60
2023/05/05 08:08:55;;;;;;;2.00;1.00;;;18.70;99.90;;;;;;5104691;28;20417;-60
2023/05/05 08:11:22;;;;;;;1.20;0.70;;;18.50;99.90;;;;;;5110438;28;20435;-60
2023/05/05 08:13:49;;;;;;;1.70;0.70;;;18.50;99.90;;;;;;5111290;28;20481;-59
2023/05/05 08:16:16;;;;;;;1.50;0.70;;;18.40;99.90;;;;;;5093755;28;20487;-59
2023/05/05 08:18:43;;;;;;;1.80;0.70;;;18.30;99.90;;;;;;5094709;28;20429;-60
2023/05/05 08:21:12;;;;;;;1.60;0.70;;;18.30;99.90;;;;;;5113820;28;20785;-60
2023/05/05 08:23:39;;;;;;;1.80;0.63;;;18.20;99.90;;;;;;5114856;28;20773;-60
2023/05/05 08:26:08;;;;;;;1.60;0.70;;;18.30;99.90;;;;;;5107204;28;21027;-60
2023/05/05 08:28:36;;;;;;;1.02;0.77;;;18.30;99.90;;;;;;5109455;28;20434;-60
2023/05/05 08:31:04;;;;;;;1.10;0.80;;;18.30;99.90;;;;;;5114491;28;20454;-61
2023/05/05 08:33:31;;;;;;;1.10;0.90;;;18.30;99.90;;;;;;5114613;28;20519;-60
2023/05/05 08:35:58;;;;;;;1.10;0.80;;;18.30;99.90;;;;;;5115130;28;20832;-60
2023/05/05 08:38:26;;;;;;;1.50;0.70;;;18.30;99.90;;;;;;5112945;28;20684;-59
2023/05/05 08:40:53;;;;;;;2.03;0.70;;;18.40;99.90;;;;;;5114824;28;20420;-60
2023/05/05 08:43:22;;;;;;;1.00;0.80;;;18.50;99.90;;;;;;5112392;28;20436;-60
2023/05/05 08:45:51;;;;;;;1.13;0.80;;;18.60;99.90;;;;;;5112353;28;20424;-60
2023/05/05 08:48:19;;;;;;;1.00;0.70;;;18.60;99.90;;;;;;5100396;28;21545;-60
2023/05/05 08:50:51;;;;;;;1.20;0.80;;;18.60;99.90;;;;;;5094138;28;20418;-60
2023/05/05 08:53:30;;;;;;;1.50;0.73;;;18.70;99.90;;;;;;5094622;28;20796;-62
2023/05/05 08:56:00;;;;;;;1.00;0.70;;;18.70;99.90;;;;;;5093225;28;20420;-60
2023/05/05 08:58:30;;;;;;;0.90;0.70;;;18.80;99.90;;;;;;5094625;28;20452;-61
2023/05/05 09:01:00;;;;;;;0.90;0.70;;;18.80;99.90;;;;;;5092618;28;20466;-60
2023/05/05 09:03:29;;;;;;;1.30;0.70;;;18.90;99.90;;;;;;5092605;28;20430;-62
2023/05/05 09:05:56;;;;;;;0.95;0.75;;;18.90;99.90;;;;;;5093427;28;20426;-60
2023/05/05 09:08:24;;;;;;;1.00;0.70;;;18.90;99.90;;;;;;5104085;28;20444;-61
2023/05/05 09:10:52;;;;;;;0.90;0.70;;;18.90;99.90;;;;;;5108472;28;20432;-61
2023/05/05 09:13:20;;;;;;;1.90;0.90;;;19.00;99.90;;;;;;5111424;28;20805;-60
2023/05/05 09:15:47;;;;;;;1.42;0.80;;;19.10;99.90;;;;;;5103978;28;20545;-59
2023/05/05 09:18:14;;;;;;;1.10;0.90;;;19.10;99.90;;;;;;5106799;28;20525;-60
2023/05/05 09:20:45;;;;;;;1.50;0.80;;;19.20;99.90;;;;;;5108753;28;20432;-60
2023/05/05 09:23:13;;;;;;;1.20;0.80;;;19.30;99.90;;;;;;5094815;28;20501;-60
2023/05/05 09:25:41;;;;;;;1.90;0.80;;;19.40;99.90;;;;;;5101642;28;20432;-60
2023/05/05 09:28:10;;;;;;;1.75;0.80;;;19.50;99.90;;;;;;5103472;28;20416;-59
2023/05/05 09:30:39;;;;;;;2.00;0.80;;;19.50;99.90;;;;;;5110659;28;20451;-62
2023/05/05 09:33:07;;;;;;;1.08;0.80;;;19.70;99.90;;;;;;5113056;28;20693;-61
2023/05/05 09:35:50;;;;;;;1.67;0.80;;;19.80;99.90;;;;;;5113429;28;20416;-61
2023/05/05 09:38:18;;;;;;;1.23;0.80;;;19.80;99.90;;;;;;5096237;28;20537;-59
2023/05/05 09:40:47;;;;;;;2.00;0.90;;;19.90;99.90;;;;;;5112299;28;20443;-60
2023/05/05 09:43:14;;;;;;;1.10;0.70;;;20.00;99.90;;;;;;5109092;28;20422;-60
2023/05/05 09:45:43;;;;;;;1.70;0.90;;;20.10;99.90;;;;;;5109756;28;20427;-59
2023/05/05 09:48:24;;;;;;;1.27;0.70;;;20.20;99.90;;;;;;5105910;28;20422;-59
2023/05/05 09:50:51;;;;;;;0.90;0.67;;;20.30;99.90;;;;;;5091754;28;20416;-61
2023/05/05 09:53:19;;;;;;;1.30;0.70;;;20.50;99.90;;;;;;5098942;28;20504;-61
2023/05/05 09:55:56;;;;;;;1.70;0.70;;;20.70;99.90;;;;;;5111508;28;20454;-59
2023/05/05 09:58:25;;;;;;;1.60;0.80;;;20.90;99.90;;;;;;5103692;28;20484;-61
2023/05/05 10:00:54;;;;;;;1.90;0.70;;;21.10;99.90;;;;;;5108762;28;20421;-60
2023/05/05 10:03:22;;;;;;;1.02;0.70;;;21.20;99.90;;;;;;5089584;28;20465;-62
2023/05/05 10:05:51;;;;;;;1.13;0.50;;;21.20;99.90;;;;;;5091750;28;20486;-61
2023/05/05 10:08:19;;;;;;;0.70;0.50;;;21.20;99.90;;;;;;5092084;28;20438;-60
2023/05/05 10:10:54;;;;;;;0.80;0.50;;;21.20;99.90;;;;;;5092520;28;20475;-60
2023/05/05 10:13:22;;;;;;;1.20;0.60;;;21.20;99.90;;;;;;5090364;28;20714;-60
2023/05/05 10:15:51;;;;;;;0.77;0.60;;;21.20;99.90;;;;;;5090779;28;20915;-60
2023/05/05 10:18:22;;;;;;;1.90;0.50;;;21.20;99.90;;;;;;5105426;28;20564;-60
2023/05/05 10:20:55;;;;;;;1.33;0.50;;;21.10;99.90;;;;;;5112435;28;20420;-61
2023/05/05 10:23:23;;;;;;;0.95;0.60;;;20.90;99.90;;;;;;5111608;28;20428;-59
2023/05/05 10:25:55;;;;;;;1.63;0.60;;;20.80;99.90;;;;;;5106154;28;20425;-61
2023/05/05 10:28:31;;;;;;;0.80;0.55;;;20.80;99.90;;;;;;5093363;28;20928;-64
2023/05/05 10:31:00;;;;;;;1.50;0.45;;;20.80;99.90;;;;;;5100198;28;20941;-63
2023/05/05 10:33:35;;;;;;;1.40;0.50;;;20.90;99.90;;;;;;5102796;28;20538;-58
2023/05/05 10:36:05;;;;;;;0.60;0.40;;;20.90;99.90;;;;;;5101405;28;20514;-59
2023/05/05 10:38:33;;;;;;;0.80;0.60;;;20.80;99.90;;;;;;5100608;28;20444;-58
2023/05/05 10:41:01;;;;;;;0.68;0.40;;;20.80;99.90;;;;;;5098726;28;20460;-60
2023/05/05 10:43:30;;;;;;;0.70;0.50;;;20.90;99.90;;;;;;5106179;28;20432;-59
2023/05/05 10:45:57;;;;;;;0.65;0.50;;;20.90;99.90;;;;;;5101252;28;20426;-61
2023/05/05 10:48:33;;;;;;;0.97;0.60;;;20.70;99.90;;;;;;5093712;28;21079;-59
2023/05/05 10:51:11;;;;;;;1.17;0.60;;;20.60;99.90;;;;;;5093706;28;20426;-60
2023/05/05 10:53:44;;;;;;;1.20;0.50;;;20.40;99.90;;;;;;5105685;28;20416;-60
2023/05/05 10:56:19;;;;;;;0.70;0.50;;;20.30;99.90;;;;;;5108229;28;20728;-61
2023/05/05 10:58:46;;;;;;;1.90;0.50;;;20.30;99.90;;;;;;5107146;28;20859;-61
2023/05/05 11:01:29;;;;;;;2.03;0.70;;;20.40;99.90;;;;;;5104363;28;20441;-60
2023/05/05 11:04:19;;;;;;;1.35;0.60;;;20.40;99.90;;;;;;5092471;28;20438;-60
2023/05/05 11:07:24;;;;;;;1.10;0.50;;;20.50;99.90;;;;;;5099058;28;20486;-59
2023/05/05 11:10:00;;;;;;;0.70;0.50;;;20.50;99.90;;;;;;5090920;28;20463;-60
2023/05/05 11:12:35;;;;;;;0.80;0.60;;;20.60;99.90;;;;;;5100370;28;20483;-60
2023/05/05 11:15:36;;;;;;;1.10;0.60;;;20.60;99.90;;;;;;5101108;28;20743;-60
2023/05/05 11:18:05;;;;;;;1.30;0.50;;;20.70;99.90;;;;;;5096987;28;20425;-60
2023/05/05 11:21:14;;;;;;;1.00;0.60;;;20.90;99.90;;;;;;5099202;28;20726;-59
2023/05/05 11:23:42;;;;;;;1.83;0.50;;;20.80;99.90;;;;;;5099428;28;20430;-60
2023/05/05 11:26:09;;;;;;;0.80;0.50;;;20.70;99.90;;;;;;5105093;28;20872;-62
2023/05/05 11:28:55;;;;;;;1.10;0.60;;;20.80;99.90;;;;;;5104681;28;20457;-60
2023/05/05 11:31:23;;;;;;;0.70;0.50;;;21.00;99.90;;;;;;5108030;28;20509;-60
2023/05/05 11:33:50;;;;;;;0.93;0.40;;;21.10;99.90;;;;;;5098641;28;20431;-58
2023/05/05 11:36:19;;;;;;;0.80;0.40;;;21.20;99.90;;;;;;5103035;28;20443;-58
2023/05/05 11:39:17;;;;;;;1.30;0.40;;;21.60;99.90;;;;;;5099797;28;20487;-58
2023/05/05 11:42:12;;;;;;;0.70;0.50;;;22.00;99.90;;;;;;5108664;28;21001;-58
2023/05/05 11:44:39;;;;;;;0.70;0.50;;;22.40;99.90;;;;;;5100601;28;20754;-58
2023/05/05 11:47:30;;;;;;;1.15;0.50;;;22.80;99.90;;;;;;5107657;28;20813;-57
2023/05/05 11:50:19;;;;;;;0.80;0.50;;;23.10;99.90;;;;;;5106285;28;20424;-58
2023/05/05 11:52:53;;;;;;;0.80;0.50;;;23.40;99.90;;;;;;5101857;28;20530;-58
2023/05/05 11:55:24;;;;;;;0.90;0.50;;;23.40;99.90;;;;;;5110211;28;20763;-57
2023/05/05 11:57:52;;;;;;;1.27;0.52;;;23.40;99.90;;;;;;5110469;28;20775;-57
2023/05/05 12:00:30;;;;;;;0.63;0.40;;;23.40;99.90;;;;;;5102101;28;20479;-57
2023/05/05 12:02:58;;;;;;;1.00;0.47;;;23.20;99.90;;;;;;5099760;28;21123;-59
2023/05/05 12:05:25;;;;;;;0.70;0.50;;;23.50;99.90;;;;;;5106977;28;20443;-57
2023/05/05 12:07:58;;;;;;;0.60;0.43;;;23.60;99.90;;;;;;5112367;28;20936;-58
2023/05/05 12:10:25;;;;;;;0.60;0.50;;;23.50;99.90;;;;;;5104134;28;20433;-57
2023/05/05 12:12:52;;;;;;;1.80;0.50;;;23.70;99.90;;;;;;5112768;28;20432;-58
2023/05/05 12:15:29;;;;;;;1.10;0.40;;;23.90;99.90;;;;;;5097998;28;20433;-58
2023/05/05 12:17:56;;;;;;;0.90;0.60;;;23.90;99.90;;;;;;5105047;28;20518;-58
2023/05/05 12:20:30;;;;;;;1.00;0.50;;;24.00;99.90;;;;;;5114502;28;20847;-59
2023/05/05 12:23:04;;;;;;;0.80;0.60;;;24.00;99.90;;;;;;5112703;28;20906;-59
2023/05/05 12:25:40;;;;;;;0.75;0.50;;;24.00;99.90;;;;;;5109748;28;20870;-58
2023/05/05 12:28:08;;;;;;;0.80;0.50;;;23.40;99.90;;;;;;5111886;28;20893;-59
2023/05/05 12:30:36;;;;;;;0.93;0.50;;;23.40;99.90;;;;;;5111412;28;20950;-58
2023/05/05 12:33:03;;;;;;;0.80;0.50;;;23.00;99.90;;;;;;5112984;28;20874;-59
2023/05/05 12:35:31;;;;;;;0.90;0.60;;;23.30;99.90;;;;;;5108179;28;20435;-59
2023/05/05 12:37:59;;;;;;;1.20;0.60;;;23.30;99.90;;;;;;5106902;28;20420;-58
2023/05/05 12:40:48;;;;;;;1.10;0.50;;;23.30;99.90;;;;;;5103231;28;20436;-59
2023/05/05 12:43:30;;;;;;;1.90;0.60;;;23.30;99.90;;;;;;5107887;28;20864;-59
2023/05/05 12:46:05;;;;;;;0.88;0.50;;;23.40;99.90;;;;;;5112222;28;20473;-58
2023/05/05 12:48:33;;;;;;;0.80;0.50;;;23.40;99.90;;;;;;5102892;28;20472;-59
2023/05/05 12:51:14;;;;;;;0.80;0.50;;;23.60;99.90;;;;;;5107983;28;20436;-59
2023/05/05 12:53:42;;;;;;;0.80;0.60;;;23.80;99.90;;;;;;5106550;27;20517;-58
2023/05/05 12:56:31;;;;;;;1.17;0.60;;;23.90;99.90;;;;;;5104835;28;20484;-58
2023/05/05 12:58:59;;;;;;;1.10;0.50;;;24.20;99.90;;;;;;5107441;28;20529;-58
2023/05/05 13:01:26;;;;;;;0.88;0.57;;;24.30;99.90;;;;;;5105263;28;20500;-58